createdAt,value
2018-09-26T00:01:52.309Z,8.30
2018-09-26T00:04:26.918Z,8.20
2018-09-26T00:06:55.923Z,8.20
2018-09-26T00:09:24.346Z,8.20
2018-09-26T00:11:52.867Z,8.20
2018-09-26T00:14:21.360Z,8.00
2018-09-26T00:16:49.796Z,8.10
2018-09-26T00:19:18.210Z,8.10
2018-09-26T00:21:46.688Z,8.10
2018-09-26T00:24:16.202Z,8.10
2018-09-26T00:26:44.652Z,8.00
2018-09-26T00:29:13.105Z,8.00
2018-09-26T00:31:41.610Z,8.00
2018-09-26T00:34:10.025Z,7.90
2018-09-26T00:36:38.471Z,7.90
2018-09-26T00:39:07.301Z,7.90
2018-09-26T00:41:35.718Z,7.90
2018-09-26T00:44:04.197Z,7.80
2018-09-26T00:46:35.057Z,7.80
2018-09-26T00:49:03.563Z,7.80
2018-09-26T00:51:32.065Z,7.80
2018-09-26T00:54:00.600Z,7.80
2018-09-26T00:56:29.053Z,7.70
2018-09-26T00:58:57.693Z,7.70
2018-09-26T01:01:26.210Z,7.70
2018-09-26T01:03:54.832Z,7.80
2018-09-26T01:06:23.397Z,7.70
2018-09-26T01:08:51.878Z,7.70
2018-09-26T01:11:20.385Z,7.70
2018-09-26T01:13:48.856Z,7.60
2018-09-26T01:16:17.384Z,7.60
2018-09-26T01:18:45.861Z,7.60
2018-09-26T01:21:14.322Z,7.60
2018-09-26T01:23:42.777Z,7.60
2018-09-26T01:26:11.267Z,7.60
2018-09-26T01:28:39.712Z,7.60
2018-09-26T01:31:08.157Z,7.60
2018-09-26T01:33:36.604Z,7.50
2018-09-26T01:36:05.018Z,7.40
2018-09-26T01:38:33.475Z,7.40
2018-09-26T01:41:01.913Z,7.40
2018-09-26T01:43:30.409Z,7.40
2018-09-26T01:45:58.918Z,7.50
2018-09-26T01:48:27.579Z,7.50
2018-09-26T01:50:56.296Z,7.50
2018-09-26T01:53:24.871Z,7.50
2018-09-26T01:55:53.325Z,7.50
2018-09-26T01:58:21.778Z,7.40
2018-09-26T02:00:50.209Z,7.40
2018-09-26T02:03:18.629Z,7.40
2018-09-26T02:05:47.098Z,7.30
2018-09-26T02:08:15.562Z,7.40
2018-09-26T02:10:43.992Z,7.30
2018-09-26T02:13:12.492Z,7.30
2018-09-26T02:15:40.888Z,7.20
2018-09-26T02:18:09.319Z,7.30
2018-09-26T02:20:37.812Z,7.20
2018-09-26T02:23:06.293Z,7.20
2018-09-26T02:25:34.663Z,7.20
2018-09-26T02:28:03.108Z,7.30
2018-09-26T02:30:31.636Z,7.20
2018-09-26T02:33:00.170Z,7.20
2018-09-26T02:35:28.624Z,7.20
2018-09-26T02:37:57.203Z,7.20
2018-09-26T02:40:25.867Z,7.20
2018-09-26T02:42:54.387Z,7.20
2018-09-26T02:45:22.837Z,7.20
2018-09-26T02:47:51.378Z,7.20
2018-09-26T02:50:19.850Z,7.10
2018-09-26T02:52:48.319Z,7.20
2018-09-26T02:55:16.853Z,7.10
2018-09-26T02:57:45.274Z,7.00
2018-09-26T03:00:13.730Z,7.00
2018-09-26T03:02:42.236Z,7.10
2018-09-26T03:05:10.678Z,7.20
2018-09-26T03:07:39.091Z,7.10
2018-09-26T03:10:08.049Z,7.00
2018-09-26T03:12:36.471Z,7.00
2018-09-26T03:15:04.985Z,7.00
2018-09-26T03:17:33.461Z,7.00
2018-09-26T03:20:01.940Z,7.10
2018-09-26T03:22:30.367Z,7.00
2018-09-26T03:24:58.904Z,6.90
2018-09-26T03:27:27.807Z,7.00
2018-09-26T03:29:56.355Z,7.00
2018-09-26T03:32:24.909Z,6.90
2018-09-26T03:34:53.442Z,6.90
2018-09-26T03:37:21.905Z,6.90
2018-09-26T03:39:50.382Z,6.90
2018-09-26T03:42:18.822Z,6.80
2018-09-26T03:44:47.200Z,6.90
2018-09-26T03:47:15.705Z,6.90
2018-09-26T03:49:44.181Z,6.90
2018-09-26T03:52:12.729Z,6.90
2018-09-26T03:54:41.225Z,6.90
2018-09-26T03:57:09.708Z,6.80
2018-09-26T03:59:38.189Z,6.80
2018-09-26T04:02:06.708Z,6.80
2018-09-26T04:04:35.118Z,6.70
2018-09-26T04:07:03.545Z,6.80
2018-09-26T04:09:32.120Z,6.80
2018-09-26T04:12:00.827Z,6.80
2018-09-26T04:14:29.852Z,6.60
2018-09-26T04:16:58.513Z,6.70
2018-09-26T04:19:28.027Z,6.70
2018-09-26T04:21:57.111Z,6.70
2018-09-26T04:24:25.675Z,6.70
2018-09-26T04:26:55.007Z,6.70
2018-09-26T04:29:23.531Z,6.60
2018-09-26T04:31:51.968Z,6.60
2018-09-26T04:34:20.430Z,6.70
2018-09-26T04:36:48.924Z,6.70
2018-09-26T04:39:17.348Z,6.70
2018-09-26T04:41:45.816Z,6.70
2018-09-26T04:44:14.268Z,6.80
2018-09-26T04:46:42.694Z,6.80
2018-09-26T04:49:11.303Z,6.70
2018-09-26T04:51:39.726Z,6.70
2018-09-26T04:54:08.249Z,6.70
2018-09-26T04:56:36.696Z,6.70
2018-09-26T04:59:05.156Z,6.70
2018-09-26T05:01:33.636Z,6.70
2018-09-26T05:04:02.096Z,6.70
2018-09-26T05:06:30.589Z,6.70
2018-09-26T05:08:59.086Z,6.70
2018-09-26T05:11:27.606Z,6.80
2018-09-26T05:13:56.251Z,6.70
2018-09-26T05:16:24.825Z,6.70
2018-09-26T05:18:53.461Z,6.70
2018-09-26T05:21:21.906Z,6.70
2018-09-26T05:23:50.339Z,6.70
2018-09-26T05:26:18.896Z,6.70
2018-09-26T05:28:47.455Z,6.80
2018-09-26T05:31:15.992Z,6.80
2018-09-26T05:33:44.472Z,6.80
2018-09-26T05:36:12.992Z,6.80
2018-09-26T05:38:41.472Z,6.80
2018-09-26T05:41:09.940Z,6.80
2018-09-26T05:43:38.440Z,6.80
2018-09-26T05:46:07.473Z,6.80
2018-09-26T05:48:36.289Z,6.90
2018-09-26T05:51:04.796Z,6.80
2018-09-26T05:53:34.045Z,6.90
2018-09-26T05:56:02.526Z,6.90
2018-09-26T05:58:30.994Z,7.00
2018-09-26T06:00:59.613Z,7.00
2018-09-26T06:03:28.077Z,7.10
2018-09-26T06:05:56.660Z,7.20
2018-09-26T06:08:25.165Z,7.30
2018-09-26T06:10:53.675Z,7.40
2018-09-26T06:13:22.069Z,7.40
2018-09-26T06:15:50.589Z,7.50
2018-09-26T06:18:19.012Z,7.60
2018-09-26T06:20:47.548Z,7.70
2018-09-26T06:23:16.007Z,7.70
2018-09-26T06:25:44.512Z,7.70
2018-09-26T06:28:13.006Z,7.70
2018-09-26T06:30:41.466Z,7.80
2018-09-26T06:33:10.061Z,7.80
2018-09-26T06:35:38.632Z,7.90
2018-09-26T06:38:07.045Z,8.00
2018-09-26T06:40:35.691Z,8.20
2018-09-26T06:43:04.102Z,8.10
2018-09-26T06:45:32.553Z,8.20
2018-09-26T06:48:01.035Z,8.20
2018-09-26T06:50:29.574Z,8.30
2018-09-26T06:52:58.021Z,8.40
2018-09-26T06:55:26.541Z,8.50
2018-09-26T06:57:55.301Z,8.60
2018-09-26T07:00:24.755Z,8.70
2018-09-26T07:02:53.840Z,8.80
2018-09-26T07:05:22.364Z,8.90
2018-09-26T07:07:50.935Z,9.00
2018-09-26T07:10:19.463Z,9.10
2018-09-26T07:12:47.886Z,9.30
2018-09-26T07:15:16.334Z,9.30
2018-09-26T07:17:44.750Z,9.40
2018-09-26T07:20:13.196Z,9.60
2018-09-26T07:22:41.756Z,9.60
2018-09-26T07:25:10.257Z,9.70
2018-09-26T07:27:38.732Z,9.80
2018-09-26T07:30:07.468Z,9.90
2018-09-26T07:32:35.893Z,10.10
2018-09-26T07:35:04.419Z,10.20
2018-09-26T07:37:33.319Z,10.40
2018-09-26T07:40:01.805Z,10.50
2018-09-26T07:42:30.260Z,10.60
2018-09-26T07:45:00.171Z,10.60
2018-09-26T07:47:28.742Z,10.60
2018-09-26T07:49:57.595Z,10.70
2018-09-26T07:52:26.187Z,10.60
2018-09-26T07:54:54.760Z,10.60
2018-09-26T07:57:23.342Z,10.60
2018-09-26T07:59:51.822Z,10.60
2018-09-26T08:02:20.362Z,10.60
2018-09-26T08:04:48.940Z,10.70
2018-09-26T08:07:17.455Z,10.90
2018-09-26T08:09:45.937Z,11.30
2018-09-26T08:12:14.440Z,11.70
2018-09-26T08:14:42.993Z,12.00
2018-09-26T08:17:11.504Z,12.10
2018-09-26T08:19:40.249Z,12.10
2018-09-26T08:22:08.756Z,12.00
2018-09-26T08:24:37.200Z,11.80
2018-09-26T08:27:05.726Z,11.80
2018-09-26T08:29:34.233Z,11.70
2018-09-26T08:32:02.767Z,11.80
2018-09-26T08:34:31.352Z,11.80
2018-09-26T08:36:59.796Z,11.80
2018-09-26T08:39:31.464Z,11.80
2018-09-26T08:42:00.019Z,11.90
2018-09-26T08:44:28.708Z,11.90
2018-09-26T08:46:57.254Z,11.90
2018-09-26T08:49:26.051Z,11.90
2018-09-26T08:51:54.617Z,12.00
2018-09-26T08:54:23.072Z,12.00
2018-09-26T08:56:51.650Z,12.10
2018-09-26T08:59:20.223Z,12.10
2018-09-26T09:01:49.158Z,12.10
2018-09-26T09:04:18.577Z,12.10
2018-09-26T09:06:47.398Z,12.20
2018-09-26T09:09:15.946Z,12.30
2018-09-26T09:11:44.523Z,12.30
2018-09-26T09:14:12.966Z,12.30
2018-09-26T09:16:41.409Z,12.30
2018-09-26T09:19:09.858Z,12.50
2018-09-26T09:21:38.343Z,12.50
2018-09-26T09:24:06.848Z,12.50
2018-09-26T09:26:40.577Z,12.60
2018-09-26T09:29:09.073Z,12.70
2018-09-26T09:31:37.500Z,12.80
2018-09-26T09:34:06.074Z,12.90
2018-09-26T09:36:34.549Z,13.10
2018-09-26T09:39:03.089Z,13.20
2018-09-26T09:41:31.555Z,13.30
2018-09-26T09:44:00.055Z,13.50
2018-09-26T09:46:28.615Z,13.60
2018-09-26T09:48:57.213Z,13.70
2018-09-26T09:51:25.821Z,13.80
2018-09-26T09:53:54.356Z,13.80
2018-09-26T09:56:22.979Z,13.90
2018-09-26T09:58:51.372Z,14.00
2018-09-26T10:01:25.097Z,14.10
2018-09-26T10:03:53.574Z,14.20
2018-09-26T10:06:22.097Z,14.40
2018-09-26T10:08:50.706Z,14.60
2018-09-26T10:11:19.144Z,14.80
2018-09-26T10:13:47.562Z,14.80
2018-09-26T10:16:16.039Z,14.80
2018-09-26T10:18:45.008Z,14.80
2018-09-26T10:21:13.823Z,14.70
2018-09-26T10:23:42.248Z,14.60
2018-09-26T10:26:11.148Z,14.60
2018-09-26T10:28:39.953Z,14.60
2018-09-26T10:31:08.548Z,14.60
2018-09-26T10:33:36.982Z,14.60
2018-09-26T10:36:05.510Z,14.70
2018-09-26T10:38:33.926Z,14.70
2018-09-26T10:41:02.451Z,14.90
2018-09-26T10:43:33.318Z,15.00
2018-09-26T10:46:02.041Z,15.10
2018-09-26T10:48:30.569Z,15.20
2018-09-26T10:50:59.078Z,15.20
2018-09-26T10:53:27.526Z,15.20
2018-09-26T10:55:56.094Z,15.20
2018-09-26T10:58:25.076Z,15.30
2018-09-26T11:00:53.550Z,15.30
2018-09-26T11:03:22.001Z,15.30
2018-09-26T11:05:50.464Z,15.20
2018-09-26T11:08:18.960Z,15.20
2018-09-26T11:10:47.466Z,15.20
2018-09-26T11:13:15.944Z,15.20
2018-09-26T11:15:44.647Z,15.20
2018-09-26T11:18:13.185Z,15.30
2018-09-26T11:20:41.614Z,15.30
2018-09-26T11:23:10.049Z,15.30
2018-09-26T11:25:38.998Z,15.30
2018-09-26T11:28:07.464Z,15.30
2018-09-26T11:30:35.986Z,15.30
2018-09-26T11:33:04.724Z,15.40
2018-09-26T11:35:33.333Z,15.50
2018-09-26T11:38:01.828Z,15.50
2018-09-26T11:40:31.032Z,15.50
2018-09-26T11:42:59.517Z,15.50
2018-09-26T11:45:28.097Z,15.50
2018-09-26T11:47:56.689Z,15.50
2018-09-26T11:50:25.514Z,15.50
2018-09-26T11:52:53.985Z,15.50
2018-09-26T11:55:22.500Z,15.60
2018-09-26T11:57:50.917Z,15.60
2018-09-26T12:00:19.420Z,15.60
2018-09-26T12:02:48.374Z,15.60
2018-09-26T12:05:16.881Z,15.60
2018-09-26T12:07:45.321Z,15.70
2018-09-26T12:10:14.334Z,15.70
2018-09-26T12:12:43.258Z,15.80
2018-09-26T12:15:12.204Z,15.80
2018-09-26T12:17:40.742Z,15.90
2018-09-26T12:20:09.260Z,15.90
2018-09-26T12:22:37.946Z,16.00
2018-09-26T12:25:06.418Z,16.00
2018-09-26T12:27:34.868Z,16.00
2018-09-26T12:30:03.423Z,15.90
2018-09-26T12:32:31.849Z,15.90
2018-09-26T12:35:00.364Z,15.90
2018-09-26T12:37:28.893Z,15.90
2018-09-26T12:39:57.355Z,15.90
2018-09-26T12:42:25.959Z,15.90
2018-09-26T12:44:54.360Z,15.90
2018-09-26T12:47:23.516Z,15.80
2018-09-26T12:49:51.993Z,15.80
2018-09-26T12:52:20.526Z,15.90
2018-09-26T12:54:48.997Z,16.00
2018-09-26T12:57:17.526Z,16.10
2018-09-26T12:59:46.006Z,16.10
2018-09-26T13:02:14.508Z,16.20
2018-09-26T13:04:42.880Z,16.40
2018-09-26T13:07:11.503Z,16.50
2018-09-26T13:09:39.961Z,16.50
2018-09-26T13:12:08.496Z,16.50
2018-09-26T13:14:37.013Z,16.40
2018-09-26T13:17:05.468Z,16.40
2018-09-26T13:19:33.964Z,16.40
2018-09-26T13:22:02.845Z,16.40
2018-09-26T13:24:31.487Z,16.40
2018-09-26T13:26:59.922Z,16.40
2018-09-26T13:29:31.284Z,16.40
2018-09-26T13:31:59.999Z,16.40
2018-09-26T13:34:29.123Z,16.50
2018-09-26T13:36:58.472Z,16.50
2018-09-26T13:39:27.045Z,16.60
2018-09-26T13:41:55.866Z,16.60
2018-09-26T13:44:24.716Z,16.60
2018-09-26T13:46:53.170Z,16.60
2018-09-26T13:49:21.607Z,16.60
2018-09-26T13:51:50.102Z,16.60
2018-09-26T13:54:18.504Z,16.60
2018-09-26T13:56:46.962Z,16.60
2018-09-26T13:59:15.554Z,16.60
2018-09-26T14:01:44.647Z,16.60
2018-09-26T14:04:13.124Z,16.60
2018-09-26T14:06:41.615Z,16.60
2018-09-26T14:09:10.195Z,16.50
2018-09-26T14:11:38.709Z,16.50
2018-09-26T14:14:07.213Z,16.50
2018-09-26T14:16:36.489Z,16.50
2018-09-26T14:19:05.061Z,16.60
2018-09-26T14:21:35.266Z,16.70
2018-09-26T14:24:04.040Z,16.70
2018-09-26T14:26:32.509Z,16.80
2018-09-26T14:29:01.145Z,16.80
2018-09-26T14:31:30.173Z,16.80
2018-09-26T14:33:59.812Z,16.70
2018-09-26T14:36:29.433Z,16.70
2018-09-26T14:38:58.686Z,16.60
2018-09-26T14:41:27.967Z,16.60
2018-09-26T14:43:56.859Z,16.50
2018-09-26T14:46:25.474Z,16.50
2018-09-26T14:48:53.932Z,16.50
2018-09-26T14:51:22.532Z,16.50
2018-09-26T14:53:51.001Z,16.50
2018-09-26T14:56:19.762Z,16.40
2018-09-26T14:58:48.666Z,16.40
2018-09-26T15:01:17.186Z,16.30
2018-09-26T15:03:46.744Z,16.30
2018-09-26T15:06:15.266Z,16.20
2018-09-26T15:08:43.781Z,16.20
2018-09-26T15:11:12.273Z,16.20
2018-09-26T15:13:40.778Z,16.20
2018-09-26T15:16:09.266Z,16.20
2018-09-26T15:18:40.280Z,16.20
2018-09-26T15:21:08.759Z,16.20
2018-09-26T15:23:37.354Z,16.20
2018-09-26T15:26:05.938Z,16.20
2018-09-26T15:28:34.639Z,16.20
2018-09-26T15:33:47.349Z,16.10
2018-09-26T15:36:15.998Z,16.10
2018-09-26T15:38:44.717Z,16.10
2018-09-26T15:41:13.353Z,16.00
2018-09-26T15:43:41.794Z,16.00
2018-09-26T15:46:10.248Z,16.00
2018-09-26T15:48:39.178Z,16.00
2018-09-26T15:51:07.790Z,15.90
2018-09-26T15:53:36.487Z,15.90
2018-09-26T15:56:05.139Z,15.90
2018-09-26T15:58:33.624Z,15.90
2018-09-26T16:01:02.186Z,15.90
2018-09-26T16:03:31.561Z,15.90
2018-09-26T16:06:00.639Z,15.80
2018-09-26T16:08:29.341Z,15.80
2018-09-26T16:10:58.198Z,15.70
2018-09-26T16:13:27.545Z,15.70
2018-09-26T16:15:56.362Z,15.70
2018-09-26T16:18:25.033Z,15.70
2018-09-26T16:20:53.610Z,15.70
2018-09-26T16:23:22.250Z,15.60
2018-09-26T16:26:42.436Z,15.60
2018-09-26T16:29:55.810Z,15.60
2018-09-26T16:32:26.182Z,15.50
2018-09-26T16:35:06.423Z,15.50
2018-09-26T16:37:36.673Z,15.40
2018-09-26T16:40:06.394Z,15.40
2018-09-26T16:42:34.944Z,15.30
2018-09-26T16:45:03.928Z,15.30
2018-09-26T16:47:32.940Z,15.20
2018-09-26T16:50:01.491Z,15.20
2018-09-26T16:52:30.021Z,15.20
2018-09-26T16:54:58.693Z,15.10
2018-09-26T16:57:27.490Z,15.10
2018-09-26T16:59:56.162Z,15.00
2018-09-26T17:02:24.900Z,14.90
2018-09-26T17:04:53.239Z,14.90
2018-09-26T17:07:21.782Z,14.80
2018-09-26T17:09:50.256Z,14.70
2018-09-26T17:12:18.725Z,14.60
2018-09-26T17:14:47.216Z,14.50
2018-09-26T17:17:15.771Z,14.40
2018-09-26T17:19:44.166Z,14.30
2018-09-26T17:22:12.649Z,14.10
2018-09-26T17:24:41.168Z,14.10
2018-09-26T17:27:09.973Z,14.10
2018-09-26T17:29:38.614Z,14.00
2018-09-26T17:32:07.222Z,13.90
2018-09-26T17:34:35.743Z,13.90
2018-09-26T17:37:04.364Z,13.80
2018-09-26T17:39:32.926Z,13.70
2018-09-26T17:42:01.485Z,13.70
2018-09-26T17:44:30.132Z,13.60
2018-09-26T17:46:59.760Z,13.70
2018-09-26T17:49:28.341Z,13.60
2018-09-26T17:51:57.131Z,13.60
2018-09-26T17:54:25.892Z,13.50
2018-09-26T17:56:54.443Z,13.40
2018-09-26T17:59:22.961Z,13.40
2018-09-26T18:01:51.753Z,13.30
2018-09-26T18:04:20.331Z,13.30
2018-09-26T18:06:48.732Z,13.20
2018-09-26T18:09:17.274Z,13.10
2018-09-26T18:11:45.822Z,13.10
2018-09-26T18:14:14.265Z,13.10
2018-09-26T18:16:42.809Z,13.10
2018-09-26T18:19:11.420Z,13.00
2018-09-26T18:21:40.016Z,13.10
2018-09-26T18:24:08.599Z,13.10
2018-09-26T18:26:37.062Z,13.00
2018-09-26T18:29:05.631Z,13.00
2018-09-26T18:31:34.063Z,12.90
2018-09-26T18:34:02.617Z,12.80
2018-09-26T18:36:31.188Z,12.80
2018-09-26T18:39:00.164Z,12.80
2018-09-26T18:41:28.774Z,12.70
2018-09-26T18:43:57.555Z,12.70
2018-09-26T18:46:26.230Z,12.60
2018-09-26T18:48:54.916Z,12.60
2018-09-26T18:51:23.370Z,12.50
2018-09-26T18:53:51.881Z,12.50
2018-09-26T18:56:21.541Z,12.50
2018-09-26T18:58:50.096Z,12.50
2018-09-26T19:01:18.629Z,12.50
2018-09-26T19:03:47.109Z,12.40
2018-09-26T19:06:15.598Z,12.40
2018-09-26T19:08:44.132Z,12.30
2018-09-26T19:11:13.222Z,12.20
2018-09-26T19:13:41.938Z,12.10
2018-09-26T19:16:10.853Z,11.90
2018-09-26T19:18:39.305Z,11.90
2018-09-26T19:21:07.794Z,11.90
2018-09-26T19:23:36.337Z,11.80
2018-09-26T19:26:04.904Z,11.90
2018-09-26T19:28:33.576Z,11.90
2018-09-26T19:31:02.102Z,11.90
2018-09-26T19:33:31.966Z,11.80
2018-09-26T19:36:00.661Z,11.70
2018-09-26T19:38:29.339Z,11.70
2018-09-26T19:40:57.880Z,11.60
2018-09-26T19:43:26.633Z,11.60
2018-09-26T19:45:55.348Z,11.60
2018-09-26T19:48:24.018Z,11.50
2018-09-26T19:50:52.567Z,11.50
2018-09-26T19:53:21.164Z,11.50
2018-09-26T19:55:49.641Z,11.40
2018-09-26T19:58:18.372Z,11.40
2018-09-26T20:00:46.780Z,11.40
2018-09-26T20:03:15.275Z,11.50
2018-09-26T20:05:43.818Z,11.50
2018-09-26T20:08:12.312Z,11.40
2018-09-26T20:10:40.901Z,11.40
2018-09-26T20:13:09.483Z,11.30
2018-09-26T20:15:38.041Z,11.30
2018-09-26T20:18:06.664Z,11.40
2018-09-26T20:20:35.625Z,11.30
2018-09-26T20:23:04.520Z,11.30
2018-09-26T20:25:33.163Z,11.20
2018-09-26T20:28:01.704Z,11.20
2018-09-26T20:30:30.217Z,11.20
2018-09-26T20:32:58.924Z,11.20
2018-09-26T20:35:27.579Z,11.10
2018-09-26T20:37:56.370Z,11.10
2018-09-26T20:40:25.164Z,11.00
2018-09-26T20:42:53.849Z,10.90
2018-09-26T20:45:22.474Z,10.90
2018-09-26T20:47:55.777Z,10.90
2018-09-26T20:50:24.486Z,10.90
2018-09-26T20:52:53.195Z,10.80
2018-09-26T20:58:00.295Z,10.80
2018-09-26T21:00:32.533Z,10.70
2018-09-26T21:03:01.162Z,10.70
2018-09-26T21:05:30.533Z,10.70
2018-09-26T21:08:00.031Z,10.70
2018-09-26T21:10:29.654Z,10.70
2018-09-26T21:12:59.071Z,10.60
2018-09-26T21:15:28.972Z,10.60
2018-09-26T21:17:58.217Z,10.60
2018-09-26T21:20:31.080Z,10.60
2018-09-26T21:23:00.652Z,10.50
2018-09-26T21:25:29.580Z,10.50
2018-09-26T21:27:58.325Z,10.50
2018-09-26T21:30:27.384Z,10.50
2018-09-26T21:32:56.811Z,10.40
2018-09-26T21:35:25.703Z,10.50
2018-09-26T21:37:54.601Z,10.50
2018-09-26T21:40:23.465Z,10.50
2018-09-26T21:42:51.956Z,10.50
2018-09-26T21:45:20.605Z,10.50
2018-09-26T21:47:49.185Z,10.40
2018-09-26T21:50:17.865Z,10.40
2018-09-26T21:52:46.614Z,10.30
2018-09-26T21:55:15.249Z,10.30
2018-09-26T21:57:43.859Z,10.30
2018-09-26T22:00:12.492Z,10.40
2018-09-26T22:02:41.082Z,10.30
2018-09-26T22:05:09.690Z,10.20
2018-09-26T22:07:38.431Z,10.20
2018-09-26T22:10:07.160Z,10.30
2018-09-26T22:12:35.648Z,10.20
2018-09-26T22:15:04.352Z,10.20
2018-09-26T22:17:33.000Z,10.20
2018-09-26T22:20:02.083Z,10.00
2018-09-26T22:22:30.764Z,10.10
2018-09-26T22:24:59.581Z,10.10
2018-09-26T22:27:28.316Z,10.10
2018-09-26T22:29:56.858Z,10.10
2018-09-26T22:32:25.991Z,10.10
2018-09-26T22:34:54.628Z,10.10
2018-09-26T22:37:23.439Z,10.10
2018-09-26T22:39:52.097Z,10.10
2018-09-26T22:42:20.848Z,10.10
2018-09-26T22:44:49.597Z,10.20
2018-09-26T22:47:18.093Z,10.10
2018-09-26T22:49:46.708Z,10.10
2018-09-26T22:52:15.233Z,10.00
2018-09-26T22:54:43.961Z,10.00
2018-09-26T22:57:12.495Z,10.00
2018-09-26T22:59:40.956Z,10.00
2018-09-26T23:02:09.459Z,10.00
2018-09-26T23:04:38.059Z,9.90
2018-09-26T23:07:06.535Z,9.90
2018-09-26T23:09:34.985Z,9.90
2018-09-26T23:12:03.548Z,9.90
2018-09-26T23:14:32.028Z,9.90
2018-09-26T23:17:00.685Z,10.00
2018-09-26T23:19:29.448Z,9.90
2018-09-26T23:21:58.418Z,9.80
2018-09-26T23:24:27.198Z,9.90
2018-09-26T23:26:55.985Z,9.90
2018-09-26T23:29:24.842Z,9.90
2018-09-26T23:31:53.323Z,9.90
2018-09-26T23:34:21.807Z,9.90
2018-09-26T23:36:50.229Z,9.80
2018-09-26T23:39:18.749Z,9.70
2018-09-26T23:41:47.229Z,9.70
2018-09-26T23:44:15.762Z,9.80
2018-09-26T23:46:44.233Z,9.80
2018-09-26T23:49:12.658Z,9.70
2018-09-26T23:51:41.245Z,9.70
2018-09-26T23:54:09.957Z,9.70
2018-09-26T23:56:38.464Z,9.70
2018-09-26T23:59:07.143Z,9.60
